createdAt,value
2022-12-08T00:00:19.359Z,88.36
2022-12-08T00:01:19.324Z,88.36
2022-12-08T00:02:19.502Z,88.46
2022-12-08T00:03:19.555Z,88.46
2022-12-08T00:04:19.298Z,88.36
2022-12-08T00:05:19.284Z,88.32
2022-12-08T00:06:19.273Z,88.21
2022-12-08T00:07:19.971Z,88.32
2022-12-08T00:08:19.341Z,88.32
2022-12-08T00:09:19.386Z,88.32
2022-12-08T00:10:47.973Z,88.42
2022-12-08T00:11:20.569Z,88.42
2022-12-08T00:12:19.183Z,88.46
2022-12-08T00:13:19.202Z,88.46
2022-12-08T00:14:19.182Z,88.67
2022-12-08T00:15:19.184Z,88.78
2022-12-08T00:16:19.203Z,88.67
2022-12-08T00:17:19.161Z,88.88
2022-12-08T00:18:19.135Z,89.09
2022-12-08T00:19:19.174Z,89.19
2022-12-08T00:20:19.094Z,89.19
2022-12-08T00:21:19.116Z,89.19
2022-12-08T00:22:19.074Z,89.19
2022-12-08T00:23:19.140Z,89.19
2022-12-08T00:24:19.060Z,89.19
2022-12-08T00:25:19.086Z,89.19
2022-12-08T00:26:19.044Z,89.19
2022-12-08T00:27:19.055Z,89.29
2022-12-08T00:28:19.025Z,89.29
2022-12-08T00:29:19.040Z,89.29
2022-12-08T00:30:19.017Z,89.09
2022-12-08T00:31:19.051Z,88.98
2022-12-08T00:32:19.109Z,89.09
2022-12-08T00:33:18.997Z,89.09
2022-12-08T00:34:18.979Z,88.98
2022-12-08T00:35:19.960Z,88.98
2022-12-08T00:36:18.929Z,89.19
2022-12-08T00:37:18.958Z,89.40
2022-12-08T00:38:18.919Z,89.61
2022-12-08T00:39:18.927Z,89.61
2022-12-08T00:40:18.890Z,89.61
2022-12-08T00:41:18.915Z,89.71
2022-12-08T00:42:18.880Z,89.92
2022-12-08T00:43:18.882Z,90.02
2022-12-08T00:44:18.859Z,90.12
2022-12-08T00:45:18.857Z,90.12
2022-12-08T00:46:18.897Z,90.23
2022-12-08T00:47:24.529Z,90.23
2022-12-08T00:48:19.815Z,90.23
2022-12-08T00:49:18.819Z,90.12
2022-12-08T00:50:18.800Z,90.23
2022-12-08T00:51:18.809Z,90.44
2022-12-08T00:52:18.803Z,90.33
2022-12-08T00:53:18.793Z,90.23
2022-12-08T00:54:18.745Z,90.12
2022-12-08T00:55:19.748Z,90.23
2022-12-08T00:56:18.720Z,90.12
2022-12-08T00:57:18.739Z,90.02
2022-12-08T00:58:18.721Z,90.02
2022-12-08T00:59:18.714Z,89.92
2022-12-08T01:00:18.681Z,89.92
2022-12-08T01:01:18.725Z,89.92
2022-12-08T01:02:18.673Z,89.81
2022-12-08T01:03:18.723Z,89.81
2022-12-08T01:04:18.648Z,89.71
2022-12-08T01:05:18.655Z,89.71
2022-12-08T01:06:18.612Z,89.81
2022-12-08T01:07:18.676Z,89.81
2022-12-08T01:08:18.678Z,89.92
2022-12-08T01:09:18.634Z,90.02
2022-12-08T01:10:18.593Z,90.02
2022-12-08T01:11:18.575Z,90.12
2022-12-08T01:12:18.563Z,90.02
2022-12-08T01:13:18.582Z,90.02
2022-12-08T01:14:18.531Z,90.02
2022-12-08T01:15:18.546Z,90.12
2022-12-08T01:16:18.570Z,90.12
2022-12-08T01:17:18.516Z,90.02
2022-12-08T01:18:18.530Z,90.12
2022-12-08T01:19:18.554Z,90.12
2022-12-08T01:20:18.464Z,90.23
2022-12-08T01:21:18.473Z,90.12
2022-12-08T01:22:18.451Z,90.12
2022-12-08T01:23:18.447Z,90.12
2022-12-08T01:24:18.448Z,90.33
2022-12-08T01:25:18.472Z,90.44
2022-12-08T01:26:18.395Z,90.54
2022-12-08T01:27:18.414Z,90.33
2022-12-08T01:28:18.371Z,90.23
2022-12-08T01:29:18.387Z,90.44
2022-12-08T01:30:18.387Z,90.54
2022-12-08T01:31:18.497Z,90.64
2022-12-08T01:32:18.321Z,90.54
2022-12-08T01:33:18.354Z,90.44
2022-12-08T01:34:18.316Z,90.44
2022-12-08T01:35:18.322Z,90.64
2022-12-08T01:36:18.285Z,90.75
2022-12-08T01:37:18.313Z,90.75
2022-12-08T01:38:18.279Z,90.75
2022-12-08T01:39:18.281Z,91.00
2022-12-08T01:40:18.246Z,91.27
2022-12-08T01:41:18.275Z,91.27
2022-12-08T01:42:18.239Z,91.37
2022-12-08T01:43:18.241Z,91.37
2022-12-08T01:44:18.194Z,91.47
2022-12-08T01:45:18.214Z,91.47
2022-12-08T01:46:18.191Z,91.37
2022-12-08T01:47:18.214Z,91.47
2022-12-08T01:48:18.288Z,91.47
2022-12-08T01:49:18.173Z,91.47
2022-12-08T01:50:18.138Z,91.58
2022-12-08T01:51:18.157Z,91.47
2022-12-08T01:52:18.141Z,91.47
2022-12-08T01:53:18.166Z,91.47
2022-12-08T01:54:18.106Z,91.47
2022-12-08T01:55:18.133Z,91.37
2022-12-08T01:56:18.066Z,91.27
2022-12-08T01:57:18.134Z,91.16
2022-12-08T01:58:18.053Z,90.95
2022-12-08T01:59:18.067Z,90.95
2022-12-08T02:00:18.029Z,90.75
2022-12-08T02:01:18.124Z,90.75
2022-12-08T02:02:18.120Z,90.75
2022-12-08T02:03:18.033Z,90.75
2022-12-08T02:04:17.980Z,90.75
2022-12-08T02:05:18.001Z,91.00
2022-12-08T02:06:18.004Z,90.95
2022-12-08T02:07:17.992Z,91.00
2022-12-08T02:08:18.024Z,90.89
2022-12-08T02:09:17.958Z,90.79
2022-12-08T02:10:17.920Z,90.48
2022-12-08T02:11:17.940Z,90.27
2022-12-08T02:12:17.912Z,90.06
2022-12-08T02:13:17.950Z,89.96
2022-12-08T02:14:17.877Z,89.96
2022-12-08T02:15:17.891Z,90.06
2022-12-08T02:16:17.961Z,90.27
2022-12-08T02:17:17.988Z,90.37
2022-12-08T02:18:17.835Z,90.48
2022-12-08T02:19:33.253Z,90.48
2022-12-08T02:20:18.849Z,90.48
2022-12-08T02:21:17.824Z,90.48
2022-12-08T02:22:17.790Z,90.48
2022-12-08T02:23:17.812Z,90.48
2022-12-08T02:24:17.789Z,90.17
2022-12-08T02:25:17.795Z,90.06
2022-12-08T02:26:17.750Z,90.06
2022-12-08T02:27:18.722Z,90.17
2022-12-08T02:28:17.732Z,90.27
2022-12-08T02:29:17.756Z,90.23
2022-12-08T02:30:17.705Z,90.23
2022-12-08T02:31:17.789Z,90.27
2022-12-08T02:32:17.684Z,90.33
2022-12-08T02:33:17.702Z,90.37
2022-12-08T02:34:17.719Z,90.37
2022-12-08T02:35:17.678Z,90.23
2022-12-08T02:36:17.639Z,90.12
2022-12-08T02:37:17.656Z,90.02
2022-12-08T02:38:17.623Z,90.02
2022-12-08T02:39:17.646Z,89.92
2022-12-08T02:40:17.588Z,89.50
2022-12-08T02:41:17.632Z,89.09
2022-12-08T02:42:17.598Z,89.09
2022-12-08T02:43:17.584Z,89.29
2022-12-08T02:44:17.567Z,89.40
2022-12-08T02:45:17.577Z,89.61
2022-12-08T02:46:17.636Z,89.71
2022-12-08T02:47:17.552Z,89.61
2022-12-08T02:48:17.531Z,89.86
2022-12-08T02:49:17.529Z,89.92
2022-12-08T02:50:17.491Z,89.92
2022-12-08T02:51:17.563Z,89.71
2022-12-08T02:52:17.510Z,89.54
2022-12-08T02:53:47.436Z,89.54
2022-12-08T02:54:47.479Z,89.86
2022-12-08T02:55:47.409Z,89.86
2022-12-08T02:56:47.442Z,89.86
2022-12-08T02:57:47.396Z,89.81
2022-12-08T02:58:47.414Z,89.75
2022-12-08T02:59:48.750Z,89.65
2022-12-08T03:00:48.966Z,89.65
2022-12-08T03:01:47.427Z,89.75
2022-12-08T03:02:47.421Z,90.02
2022-12-08T03:03:47.359Z,89.75
2022-12-08T03:04:47.333Z,89.40
2022-12-08T03:05:48.294Z,89.54
2022-12-08T03:06:47.365Z,89.61
2022-12-08T03:07:47.335Z,89.71
2022-12-08T03:08:47.313Z,89.86
2022-12-08T03:09:47.277Z,89.71
2022-12-08T03:10:47.286Z,89.61
2022-12-08T03:11:47.236Z,89.50
2022-12-08T03:12:47.259Z,89.61
2022-12-08T03:13:47.210Z,89.92
2022-12-08T03:14:47.228Z,90.12
2022-12-08T03:15:47.256Z,90.33
2022-12-08T03:16:47.200Z,90.23
2022-12-08T03:17:47.179Z,90.12
2022-12-08T03:18:47.221Z,90.44
2022-12-08T03:19:48.106Z,90.44
2022-12-08T03:20:47.164Z,90.64
2022-12-08T03:21:47.150Z,90.85
2022-12-08T03:22:47.150Z,90.85
2022-12-08T03:23:47.109Z,90.75
2022-12-08T03:24:47.132Z,90.85
2022-12-08T03:25:47.091Z,91.06
2022-12-08T03:26:47.103Z,91.06
2022-12-08T03:27:47.086Z,90.85
2022-12-08T03:28:47.076Z,91.06
2022-12-08T03:29:47.041Z,91.37
2022-12-08T03:30:47.082Z,91.58
2022-12-08T03:31:47.047Z,91.78
2022-12-08T03:32:47.029Z,91.68
2022-12-08T03:33:47.029Z,91.78
2022-12-08T03:34:46.995Z,91.68
2022-12-08T03:35:46.994Z,91.68
2022-12-08T03:36:46.979Z,91.58
2022-12-08T03:37:47.004Z,91.58
2022-12-08T03:38:47.890Z,91.37
2022-12-08T03:39:46.993Z,91.27
2022-12-08T03:40:46.921Z,91.27
2022-12-08T03:41:46.953Z,91.47
2022-12-08T03:42:46.924Z,91.27
2022-12-08T03:43:46.915Z,91.06
2022-12-08T03:44:46.882Z,91.06
2022-12-08T03:45:46.915Z,91.16
2022-12-08T03:46:46.857Z,90.95
2022-12-08T03:47:46.884Z,90.95
2022-12-08T03:48:46.838Z,90.85
2022-12-08T03:49:46.848Z,90.85
2022-12-08T03:50:46.809Z,90.95
2022-12-08T03:51:46.847Z,91.16
2022-12-08T03:52:46.798Z,91.47
2022-12-08T03:53:46.806Z,91.58
2022-12-08T03:54:46.788Z,91.68
2022-12-08T03:55:47.739Z,91.58
2022-12-08T03:56:46.769Z,91.47
2022-12-08T03:57:46.778Z,91.58
2022-12-08T03:58:46.735Z,91.58
2022-12-08T03:59:46.770Z,91.58
2022-12-08T04:00:46.713Z,91.47
2022-12-08T04:01:46.839Z,91.37
2022-12-08T04:02:46.787Z,91.47
2022-12-08T04:03:46.713Z,91.47
2022-12-08T04:04:46.661Z,91.47
2022-12-08T04:05:46.681Z,91.37
2022-12-08T04:06:47.599Z,91.27
2022-12-08T04:07:46.697Z,91.10
2022-12-08T04:08:46.624Z,90.95
2022-12-08T04:09:46.641Z,91.00
2022-12-08T04:10:46.597Z,91.00
2022-12-08T04:11:46.642Z,90.89
2022-12-08T04:12:46.582Z,90.89
2022-12-08T04:13:46.603Z,90.89
2022-12-08T04:14:46.552Z,91.00
2022-12-08T04:15:46.652Z,91.10
2022-12-08T04:16:46.552Z,91.20
2022-12-08T04:17:46.564Z,91.20
2022-12-08T04:18:46.558Z,91.10
2022-12-08T04:19:46.519Z,91.00
2022-12-08T04:20:46.498Z,91.00
2022-12-08T04:21:46.514Z,91.00
2022-12-08T04:22:46.483Z,90.79
2022-12-08T04:23:47.451Z,90.58
2022-12-08T04:24:46.454Z,90.48
2022-12-08T04:25:46.467Z,90.37
2022-12-08T04:26:46.425Z,90.37
2022-12-08T04:27:46.438Z,90.69
2022-12-08T04:28:46.472Z,91.00
2022-12-08T04:29:46.424Z,91.00
2022-12-08T04:30:46.377Z,91.00
2022-12-08T04:31:46.472Z,90.58
2022-12-08T04:32:47.619Z,90.17
2022-12-08T04:33:46.428Z,90.48
2022-12-08T04:34:46.337Z,90.27
2022-12-08T04:35:46.361Z,90.06
2022-12-08T04:36:46.321Z,90.17
2022-12-08T04:37:46.347Z,90.48
2022-12-08T04:38:46.316Z,90.79
2022-12-08T04:39:46.309Z,91.10
2022-12-08T04:40:46.292Z,91.10
2022-12-08T04:41:46.290Z,90.89
2022-12-08T04:42:46.276Z,90.89
2022-12-08T04:43:46.272Z,90.89
2022-12-08T04:44:46.231Z,90.89
2022-12-08T04:45:46.250Z,90.89
2022-12-08T04:46:46.311Z,90.58
2022-12-08T04:47:46.256Z,90.37
2022-12-08T04:48:46.191Z,90.48
2022-12-08T04:49:46.227Z,90.69
2022-12-08T04:50:46.177Z,90.85
2022-12-08T04:51:46.208Z,91.00
2022-12-08T04:52:46.155Z,91.10
2022-12-08T04:53:46.881Z,91.10
2022-12-08T04:54:46.182Z,91.10
2022-12-08T04:55:46.145Z,91.10
2022-12-08T04:56:46.117Z,91.06
2022-12-08T04:57:46.112Z,90.75
2022-12-08T04:58:46.111Z,90.58
2022-12-08T04:59:46.094Z,90.54
2022-12-08T05:00:46.071Z,90.64
2022-12-08T05:01:46.350Z,90.64
2022-12-08T05:02:46.131Z,90.69
2022-12-08T05:03:46.073Z,90.79
2022-12-08T05:04:46.032Z,90.89
2022-12-08T05:05:46.024Z,90.89
2022-12-08T05:06:46.016Z,90.89
2022-12-08T05:07:46.079Z,90.95
2022-12-08T05:08:45.981Z,90.79
2022-12-08T05:09:46.004Z,90.69
2022-12-08T05:10:45.953Z,90.79
2022-12-08T05:11:49.068Z,90.89
2022-12-08T05:12:45.948Z,91.00
2022-12-08T05:13:45.941Z,90.79
2022-12-08T05:14:45.941Z,90.79
2022-12-08T05:15:45.918Z,90.79
2022-12-08T05:16:45.945Z,90.58
2022-12-08T05:17:45.920Z,90.48
2022-12-08T05:18:45.871Z,90.69
2022-12-08T05:19:45.869Z,90.69
2022-12-08T05:20:45.847Z,90.58
2022-12-08T05:21:45.856Z,90.48
2022-12-08T05:22:46.780Z,90.69
2022-12-08T05:23:45.840Z,90.89
2022-12-08T05:24:47.885Z,91.00
2022-12-08T05:25:45.817Z,91.20
2022-12-08T05:26:45.839Z,91.31
2022-12-08T05:27:45.819Z,91.20
2022-12-08T05:28:45.782Z,91.20
2022-12-08T05:29:45.770Z,91.10
2022-12-08T05:30:45.750Z,91.20
2022-12-08T05:31:45.830Z,91.20
2022-12-08T05:32:45.722Z,91.00
2022-12-08T05:33:45.769Z,91.00
2022-12-08T05:34:45.704Z,91.03
2022-12-08T05:35:45.715Z,91.03
2022-12-08T05:36:45.704Z,91.03
2022-12-08T05:37:45.739Z,91.14
2022-12-08T05:38:45.674Z,91.24
2022-12-08T05:39:45.662Z,91.14
2022-12-08T05:40:45.670Z,91.03
2022-12-08T05:41:45.653Z,90.93
2022-12-08T05:42:45.609Z,90.83
2022-12-08T05:43:45.634Z,90.52
2022-12-08T05:44:45.575Z,90.52
2022-12-08T05:45:45.628Z,90.83
2022-12-08T05:46:45.589Z,90.93
2022-12-08T05:47:45.586Z,90.93
2022-12-08T05:48:45.560Z,91.03
2022-12-08T05:49:45.575Z,90.83
2022-12-08T05:50:45.540Z,90.83
2022-12-08T05:51:45.555Z,90.93
2022-12-08T05:52:45.520Z,90.93
2022-12-08T05:53:45.517Z,90.83
2022-12-08T05:54:45.469Z,90.72
2022-12-08T05:55:45.506Z,90.83
2022-12-08T05:56:45.494Z,90.93
2022-12-08T05:57:45.484Z,91.14
2022-12-08T05:58:45.439Z,90.62
2022-12-08T05:59:45.521Z,90.52
2022-12-08T06:00:45.438Z,90.41
2022-12-08T06:01:45.499Z,90.31
2022-12-08T06:02:45.529Z,90.41
2022-12-08T06:03:45.486Z,90.62
2022-12-08T06:04:45.380Z,90.62
2022-12-08T06:05:45.383Z,90.83
2022-12-08T06:06:45.359Z,91.03
2022-12-08T06:07:45.466Z,91.14
2022-12-08T06:08:45.358Z,91.14
2022-12-08T06:09:45.346Z,90.83
2022-12-08T06:10:45.318Z,91.03
2022-12-08T06:11:45.338Z,90.52
2022-12-08T06:12:45.348Z,90.20
2022-12-08T06:13:45.314Z,90.52
2022-12-08T06:14:45.261Z,89.96
2022-12-08T06:15:45.286Z,90.06
2022-12-08T06:16:45.309Z,89.34
2022-12-08T06:17:45.284Z,89.13
2022-12-08T06:18:45.243Z,89.13
2022-12-08T06:19:45.329Z,89.13
2022-12-08T06:20:45.204Z,89.23
2022-12-08T06:21:45.236Z,89.34
2022-12-08T06:22:45.175Z,89.44
2022-12-08T06:23:45.196Z,89.13
2022-12-08T06:24:45.194Z,89.13
2022-12-08T06:25:45.174Z,89.13
2022-12-08T06:26:45.141Z,89.13
2022-12-08T06:27:45.160Z,89.13
2022-12-08T06:28:45.153Z,89.03
2022-12-08T06:29:45.125Z,88.82
2022-12-08T06:30:45.106Z,88.92
2022-12-08T06:31:45.205Z,89.03
2022-12-08T06:32:45.056Z,88.92
2022-12-08T06:33:45.110Z,88.82
2022-12-08T06:34:46.118Z,88.82
2022-12-08T06:35:45.056Z,88.82
2022-12-08T06:36:45.027Z,88.71
2022-12-08T06:37:45.075Z,88.78
2022-12-08T06:38:44.999Z,88.82
2022-12-08T06:39:45.021Z,88.67
2022-12-08T06:40:44.976Z,88.71
2022-12-08T06:41:44.992Z,88.82
2022-12-08T06:42:44.952Z,88.71
2022-12-08T06:43:44.960Z,88.71
2022-12-08T06:44:44.952Z,88.71
2022-12-08T06:45:45.041Z,88.71
2022-12-08T06:46:44.916Z,88.61
2022-12-08T06:47:44.928Z,88.61
2022-12-08T06:48:44.905Z,88.51
2022-12-08T06:49:44.923Z,88.61
2022-12-08T06:50:44.869Z,88.71
2022-12-08T06:51:44.878Z,88.82
2022-12-08T06:52:54.268Z,88.92
2022-12-08T06:53:45.893Z,89.23
2022-12-08T06:54:44.832Z,89.34
2022-12-08T06:55:59.311Z,89.34
2022-12-08T06:56:45.837Z,89.34
2022-12-08T06:57:44.828Z,89.44
2022-12-08T06:58:48.967Z,89.65
2022-12-08T06:59:45.852Z,89.54
2022-12-08T07:00:44.816Z,89.54
2022-12-08T07:01:44.863Z,89.44
2022-12-08T07:02:44.939Z,89.44
2022-12-08T07:03:44.773Z,89.44
2022-12-08T07:04:44.753Z,89.44
2022-12-08T07:05:44.740Z,89.44
2022-12-08T07:06:44.706Z,89.34
2022-12-08T07:07:44.779Z,89.29
2022-12-08T07:08:44.713Z,89.29
2022-12-08T07:09:44.687Z,89.29
2022-12-08T07:10:44.676Z,89.19
2022-12-08T07:11:45.640Z,89.09
2022-12-08T07:12:44.662Z,89.19
2022-12-08T07:13:44.676Z,88.98
2022-12-08T07:14:44.624Z,88.98
2022-12-08T07:15:44.659Z,89.09
2022-12-08T07:16:44.666Z,89.09
2022-12-08T07:17:44.595Z,89.09
2022-12-08T07:18:44.589Z,88.98
2022-12-08T07:19:44.594Z,88.88
2022-12-08T07:20:44.563Z,88.88
2022-12-08T07:21:44.573Z,88.88
2022-12-08T07:22:44.569Z,88.67
2022-12-08T07:23:44.577Z,88.67
2022-12-08T07:24:44.510Z,88.88
2022-12-08T07:25:44.554Z,88.98
2022-12-08T07:26:44.491Z,88.88
2022-12-08T07:27:44.501Z,88.88
2022-12-08T07:28:44.464Z,88.88
2022-12-08T07:29:44.515Z,88.98
2022-12-08T07:30:44.494Z,89.19
2022-12-08T07:31:44.459Z,89.29
2022-12-08T07:32:44.412Z,89.29
2022-12-08T07:33:44.438Z,89.19
2022-12-08T07:34:47.103Z,89.09
2022-12-08T07:35:49.198Z,89.19
2022-12-08T07:36:45.382Z,89.09
2022-12-08T07:37:44.404Z,89.09
2022-12-08T07:38:44.368Z,89.19
2022-12-08T07:39:45.357Z,89.29
2022-12-08T07:40:44.343Z,89.40
2022-12-08T07:41:44.368Z,89.19
2022-12-08T07:42:44.325Z,89.09
2022-12-08T07:43:44.341Z,89.09
2022-12-08T07:44:44.313Z,89.40
2022-12-08T07:45:44.364Z,89.09
2022-12-08T07:46:44.396Z,89.09
2022-12-08T07:47:44.286Z,89.09
2022-12-08T07:48:44.275Z,88.94
2022-12-08T07:49:44.251Z,88.94
2022-12-08T07:50:44.276Z,88.94
2022-12-08T07:51:44.222Z,89.04
2022-12-08T07:52:44.244Z,89.25
2022-12-08T07:53:48.395Z,89.25
2022-12-08T07:54:45.248Z,89.25
2022-12-08T07:55:44.206Z,89.25
2022-12-08T07:56:44.203Z,89.15
2022-12-08T07:57:44.149Z,89.04
2022-12-08T07:58:44.183Z,88.94
2022-12-08T07:59:44.156Z,88.84
2022-12-08T08:00:44.254Z,89.04
2022-12-08T08:01:45.495Z,89.15
2022-12-08T08:02:44.823Z,89.25
2022-12-08T08:03:44.094Z,89.36
2022-12-08T08:04:44.188Z,89.46
2022-12-08T08:05:44.071Z,89.56
2022-12-08T08:06:44.095Z,89.56
2022-12-08T08:07:44.190Z,89.56
2022-12-08T08:08:44.076Z,89.36
2022-12-08T08:09:45.006Z,89.25
2022-12-08T08:10:44.057Z,89.36
2022-12-08T08:11:55.912Z,89.36
2022-12-08T08:12:45.027Z,89.25
2022-12-08T08:13:43.996Z,89.25
2022-12-08T08:14:44.016Z,89.25
2022-12-08T08:15:44.186Z,89.15
2022-12-08T08:16:44.081Z,89.15
2022-12-08T08:17:43.952Z,89.15
2022-12-08T08:18:43.979Z,89.04
2022-12-08T08:19:43.950Z,88.94
2022-12-08T08:20:43.933Z,88.84
2022-12-08T08:21:45.975Z,88.94
2022-12-08T08:22:43.925Z,89.25
2022-12-08T08:23:43.881Z,89.36
2022-12-08T08:24:45.238Z,89.36
2022-12-08T08:25:43.865Z,89.46
2022-12-08T08:26:43.895Z,89.56
2022-12-08T08:27:43.862Z,89.46
2022-12-08T08:28:43.854Z,89.36
2022-12-08T08:29:43.817Z,89.25
2022-12-08T08:30:43.878Z,89.04
2022-12-08T08:31:43.829Z,89.15
2022-12-08T08:32:43.827Z,89.04
2022-12-08T08:33:43.780Z,89.04
2022-12-08T08:34:44.744Z,88.94
2022-12-08T08:35:43.796Z,88.90
2022-12-08T08:36:43.828Z,88.94
2022-12-08T08:37:48.577Z,88.73
2022-12-08T08:38:44.769Z,88.94
2022-12-08T08:39:43.724Z,89.25
2022-12-08T08:40:43.728Z,89.25
2022-12-08T08:41:43.712Z,89.15
2022-12-08T08:42:43.708Z,89.15
2022-12-08T08:43:43.679Z,89.15
2022-12-08T08:44:45.172Z,88.90
2022-12-08T08:45:43.649Z,88.94
2022-12-08T08:46:43.686Z,88.90
2022-12-08T08:47:43.619Z,88.90
2022-12-08T08:48:43.644Z,89.00
2022-12-08T08:49:43.633Z,89.11
2022-12-08T08:50:43.621Z,89.11
2022-12-08T08:51:43.581Z,89.21
2022-12-08T08:52:43.611Z,89.21
2022-12-08T08:53:43.623Z,89.21
2022-12-08T08:54:43.595Z,89.42
2022-12-08T08:55:43.544Z,89.31
2022-12-08T08:56:43.567Z,89.52
2022-12-08T08:57:43.526Z,89.21
2022-12-08T08:58:43.546Z,89.11
2022-12-08T08:59:43.541Z,89.11
2022-12-08T09:00:43.524Z,89.11
2022-12-08T09:01:43.538Z,89.21
2022-12-08T09:02:43.494Z,89.31
2022-12-08T09:03:43.458Z,89.11
2022-12-08T09:04:43.531Z,89.17
2022-12-08T09:05:43.536Z,88.96
2022-12-08T09:06:43.465Z,88.76
2022-12-08T09:07:43.479Z,88.76
2022-12-08T09:08:43.454Z,88.65
2022-12-08T09:09:43.399Z,88.76
2022-12-08T09:10:43.411Z,88.96
2022-12-08T09:11:43.434Z,88.96
2022-12-08T09:12:43.394Z,88.86
2022-12-08T09:13:43.361Z,88.55
2022-12-08T09:14:43.385Z,88.65
2022-12-08T09:15:43.371Z,88.86
2022-12-08T09:16:43.464Z,88.96
2022-12-08T09:17:43.308Z,88.96
2022-12-08T09:18:43.348Z,88.96
2022-12-08T09:19:43.298Z,88.96
2022-12-08T09:20:43.331Z,89.38
2022-12-08T09:21:44.250Z,89.38
2022-12-08T09:22:43.302Z,89.07
2022-12-08T09:23:43.242Z,89.17
2022-12-08T09:24:43.285Z,89.17
2022-12-08T09:25:43.232Z,89.17
2022-12-08T09:26:43.255Z,89.28
2022-12-08T09:27:43.190Z,88.96
2022-12-08T09:28:43.233Z,89.17
2022-12-08T09:29:43.199Z,88.86
2022-12-08T09:30:43.194Z,88.76
2022-12-08T09:31:43.270Z,88.96
2022-12-08T09:32:43.173Z,89.17
2022-12-08T09:33:43.134Z,89.23
2022-12-08T09:34:46.443Z,89.13
2022-12-08T09:35:44.148Z,89.13
2022-12-08T09:36:43.132Z,89.13
2022-12-08T09:37:43.132Z,89.13
2022-12-08T09:38:43.102Z,89.13
2022-12-08T09:39:43.092Z,89.13
2022-12-08T09:40:43.085Z,89.13
2022-12-08T09:41:47.749Z,89.13
2022-12-08T09:42:44.072Z,88.92
2022-12-08T09:43:43.026Z,88.61
2022-12-08T09:44:43.048Z,88.92
2022-12-08T09:45:43.011Z,89.13
2022-12-08T09:46:44.120Z,89.34
2022-12-08T09:47:42.983Z,89.44
2022-12-08T09:48:43.014Z,89.23
2022-12-08T09:49:42.968Z,89.75
2022-12-08T09:50:42.978Z,89.96
2022-12-08T09:51:42.938Z,89.86
2022-12-08T09:52:42.982Z,89.75
2022-12-08T09:53:42.938Z,89.65
2022-12-08T09:54:42.934Z,89.54
2022-12-08T09:55:42.915Z,89.75
2022-12-08T09:56:42.912Z,89.96
2022-12-08T09:57:42.878Z,89.75
2022-12-08T09:58:42.906Z,89.75
2022-12-08T09:59:42.851Z,89.75
2022-12-08T10:00:42.884Z,89.75
2022-12-08T10:01:42.903Z,89.96
2022-12-08T10:02:42.857Z,90.06
2022-12-08T10:03:42.800Z,90.16
2022-12-08T10:04:42.858Z,89.96
2022-12-08T10:05:42.804Z,89.75
2022-12-08T10:06:42.796Z,89.48
2022-12-08T10:07:42.804Z,89.69
2022-12-08T10:08:43.728Z,90.00
2022-12-08T10:09:42.760Z,90.52
2022-12-08T10:10:42.781Z,90.62
2022-12-08T10:11:42.761Z,90.72
2022-12-08T10:12:42.722Z,90.83
2022-12-08T10:13:42.704Z,90.83
2022-12-08T10:14:42.735Z,90.62
2022-12-08T10:15:42.811Z,90.68
2022-12-08T10:16:42.761Z,90.78
2022-12-08T10:17:42.673Z,90.37
2022-12-08T10:18:42.672Z,89.89
2022-12-08T10:19:42.673Z,89.96
2022-12-08T10:20:42.645Z,90.16
2022-12-08T10:21:42.617Z,90.26
2022-12-08T10:22:44.944Z,90.26
2022-12-08T10:23:42.586Z,90.47
2022-12-08T10:24:42.605Z,90.58
2022-12-08T10:25:42.596Z,90.78
2022-12-08T10:26:42.590Z,90.68
2022-12-08T10:27:42.562Z,90.58
2022-12-08T10:28:45.170Z,90.47
2022-12-08T10:29:42.526Z,90.68
2022-12-08T10:30:42.584Z,90.89
2022-12-08T10:31:42.588Z,90.78
2022-12-08T10:32:42.520Z,90.78
2022-12-08T10:33:43.435Z,90.99
2022-12-08T10:34:42.502Z,90.99
2022-12-08T10:35:42.475Z,90.99
2022-12-08T10:36:42.474Z,91.20
2022-12-08T10:37:42.450Z,91.20
2022-12-08T10:38:42.448Z,91.09
2022-12-08T10:39:42.424Z,91.20
2022-12-08T10:40:45.772Z,91.09
2022-12-08T10:41:42.401Z,91.09
2022-12-08T10:42:42.428Z,91.16
2022-12-08T10:43:42.381Z,91.05
2022-12-08T10:44:42.430Z,90.95
2022-12-08T10:45:42.357Z,90.64
2022-12-08T10:46:42.445Z,90.74
2022-12-08T10:47:45.020Z,90.53
2022-12-08T10:48:42.346Z,90.44
2022-12-08T10:49:42.313Z,90.23
2022-12-08T10:50:42.319Z,90.02
2022-12-08T10:51:42.309Z,89.81
2022-12-08T10:52:42.319Z,89.81
2022-12-08T10:53:43.218Z,89.29
2022-12-08T10:54:42.275Z,89.40
2022-12-08T10:55:42.246Z,89.50
2022-12-08T10:56:42.295Z,89.19
2022-12-08T10:57:42.246Z,89.09
2022-12-08T10:58:42.257Z,88.98
2022-12-08T10:59:42.220Z,88.98
2022-12-08T11:00:42.394Z,88.88
2022-12-08T11:01:42.346Z,88.98
2022-12-08T11:02:42.305Z,89.09
2022-12-08T11:03:42.164Z,88.98
2022-12-08T11:04:42.173Z,89.09
2022-12-08T11:05:42.141Z,88.98
2022-12-08T11:06:42.155Z,89.19
2022-12-08T11:07:42.229Z,89.19
2022-12-08T11:08:42.154Z,88.84
2022-12-08T11:09:42.129Z,88.84
2022-12-08T11:10:42.131Z,88.74
2022-12-08T11:11:42.086Z,88.53
2022-12-08T11:12:42.120Z,88.64
2022-12-08T11:13:42.049Z,88.64
2022-12-08T11:14:42.077Z,88.94
2022-12-08T11:15:42.031Z,88.84
2022-12-08T11:16:42.195Z,88.84
2022-12-08T11:17:42.009Z,88.74
2022-12-08T11:18:42.029Z,88.74
2022-12-08T11:19:42.007Z,88.43
2022-12-08T11:20:41.998Z,88.43
2022-12-08T11:21:41.973Z,88.53
2022-12-08T11:22:41.985Z,88.53
2022-12-08T11:23:42.913Z,88.53
2022-12-08T11:24:41.969Z,88.46
2022-12-08T11:25:41.950Z,88.46
2022-12-08T11:26:41.947Z,88.67
2022-12-08T11:27:42.032Z,88.78
2022-12-08T11:28:41.931Z,88.98
2022-12-08T11:29:41.894Z,89.40
2022-12-08T11:30:41.902Z,89.61
2022-12-08T11:31:41.935Z,89.71
2022-12-08T11:32:41.894Z,89.09
2022-12-08T11:33:41.848Z,88.57
2022-12-08T11:34:41.854Z,88.67
2022-12-08T11:35:41.824Z,88.78
2022-12-08T11:36:41.855Z,88.78
2022-12-08T11:37:41.795Z,88.67
2022-12-08T11:38:41.810Z,88.78
2022-12-08T11:39:41.772Z,88.78
2022-12-08T11:40:41.785Z,88.98
2022-12-08T11:41:41.756Z,88.98
2022-12-08T11:42:41.774Z,88.78
2022-12-08T11:43:41.725Z,88.67
2022-12-08T11:44:41.743Z,88.36
2022-12-08T11:45:41.735Z,88.36
2022-12-08T11:46:41.716Z,88.57
2022-12-08T11:47:41.709Z,88.67
2022-12-08T11:48:41.705Z,88.67
2022-12-08T11:49:41.678Z,88.78
2022-12-08T11:50:42.620Z,88.57
2022-12-08T11:51:41.643Z,88.46
2022-12-08T11:52:41.656Z,88.36
2022-12-08T11:53:41.631Z,88.26
2022-12-08T11:54:41.651Z,88.26
2022-12-08T11:55:45.242Z,88.71
2022-12-08T11:56:42.614Z,88.71
2022-12-08T11:57:41.620Z,88.82
2022-12-08T11:58:41.612Z,88.61
2022-12-08T11:59:41.562Z,88.30
2022-12-08T12:00:41.589Z,88.40
2022-12-08T12:01:42.852Z,88.40
2022-12-08T12:02:41.680Z,88.40
2022-12-08T12:03:41.589Z,88.30
2022-12-08T12:04:41.489Z,88.40
2022-12-08T12:06:05.875Z,88.55
2022-12-08T12:06:57.813Z,88.34
2022-12-08T12:07:42.603Z,88.34
2022-12-08T12:08:41.452Z,88.34
2022-12-08T12:09:41.501Z,88.76
2022-12-08T12:10:41.433Z,88.86
2022-12-08T12:11:41.485Z,88.13
2022-12-08T12:12:41.432Z,88.48
2022-12-08T12:13:41.436Z,88.69
2022-12-08T12:14:41.434Z,88.79
2022-12-08T12:15:41.413Z,89.11
2022-12-08T12:16:41.481Z,89.11
2022-12-08T12:17:41.394Z,89.31
2022-12-08T12:18:41.354Z,89.42
2022-12-08T12:19:41.370Z,89.11
2022-12-08T12:20:41.343Z,89.00
2022-12-08T12:21:41.357Z,89.11
2022-12-08T12:22:41.314Z,89.31
2022-12-08T12:23:41.328Z,89.42
2022-12-08T12:24:41.299Z,89.56
2022-12-08T12:25:41.335Z,89.62
2022-12-08T12:26:41.273Z,89.62
2022-12-08T12:27:41.274Z,89.94
2022-12-08T12:28:41.236Z,90.04
2022-12-08T12:29:41.279Z,89.94
2022-12-08T12:30:41.302Z,89.62
2022-12-08T12:31:41.241Z,89.42
2022-12-08T12:32:41.208Z,89.21
2022-12-08T12:33:41.226Z,89.31
2022-12-08T12:34:41.200Z,89.31
2022-12-08T12:35:41.204Z,89.11
2022-12-08T12:36:41.160Z,89.21
2022-12-08T12:37:41.179Z,89.36
2022-12-08T12:38:41.168Z,89.46
2022-12-08T12:39:41.154Z,89.36
2022-12-08T12:40:41.137Z,89.36
2022-12-08T12:41:41.123Z,89.67
2022-12-08T12:42:41.102Z,89.77
2022-12-08T12:43:41.122Z,89.67
2022-12-08T12:44:41.092Z,89.87
2022-12-08T12:45:41.143Z,89.98
2022-12-08T12:46:41.083Z,89.98
2022-12-08T12:47:41.062Z,90.08
2022-12-08T12:48:41.043Z,89.98
2022-12-08T12:49:41.047Z,90.19
2022-12-08T12:50:41.022Z,90.50
2022-12-08T12:51:41.020Z,90.50
2022-12-08T12:52:40.985Z,90.29